createdAt,value
2018-09-20T00:02:22.230Z,9.60
2018-09-20T00:04:50.285Z,10.20
2018-09-20T00:07:18.365Z,10.87
2018-09-20T00:09:46.429Z,10.10
2018-09-20T00:12:14.490Z,10.40
2018-09-20T00:14:42.575Z,9.67
2018-09-20T00:17:10.629Z,9.63
2018-09-20T00:19:38.692Z,9.80
2018-09-20T00:22:06.746Z,9.63
2018-09-20T00:24:34.820Z,10.23
2018-09-20T00:27:02.890Z,10.60
2018-09-20T00:29:30.957Z,9.63
2018-09-20T00:31:59.010Z,10.00
2018-09-20T00:34:27.105Z,9.37
2018-09-20T00:36:55.180Z,10.30
2018-09-20T00:39:23.257Z,9.70
2018-09-20T00:42:54.798Z,10.03
2018-09-20T00:45:22.886Z,10.03
2018-09-20T00:47:50.953Z,9.97
2018-09-20T00:50:19.052Z,9.07
2018-09-20T00:52:47.136Z,9.27
2018-09-20T00:55:15.194Z,9.57
2018-09-20T00:57:43.245Z,9.80
2018-09-20T01:00:11.329Z,8.87
2018-09-20T01:02:39.369Z,9.73
2018-09-20T01:05:07.429Z,10.97
2018-09-20T01:07:42.337Z,9.53
2018-09-20T01:10:10.397Z,9.00
2018-09-20T01:12:38.446Z,9.53
2018-09-20T01:15:06.894Z,11.00
2018-09-20T01:17:34.946Z,11.23
2018-09-20T01:20:03.024Z,9.97
2018-09-20T01:22:33.549Z,9.17
2018-09-20T01:25:01.606Z,9.67
2018-09-20T01:27:29.670Z,9.10
2018-09-20T01:29:57.752Z,9.27
2018-09-20T01:32:25.809Z,9.60
2018-09-20T01:34:53.874Z,8.70
2018-09-20T01:37:21.945Z,8.47
2018-09-20T01:39:50.010Z,8.70
2018-09-20T01:42:18.089Z,9.23
2018-09-20T01:44:46.191Z,9.83
2018-09-20T01:47:14.240Z,9.13
2018-09-20T01:49:42.282Z,9.00
2018-09-20T01:52:10.350Z,8.50
2018-09-20T01:54:38.406Z,8.93
2018-09-20T01:57:06.466Z,8.90
2018-09-20T01:59:34.539Z,9.10
2018-09-20T02:02:02.592Z,8.77
2018-09-20T02:04:30.701Z,9.13
2018-09-20T02:06:58.819Z,8.83
2018-09-20T02:09:26.905Z,9.17
2018-09-20T02:11:54.988Z,9.17
2018-09-20T02:14:23.076Z,8.83
2018-09-20T02:16:51.145Z,9.60
2018-09-20T02:19:19.215Z,8.47
2018-09-20T02:21:47.308Z,8.57
2018-09-20T02:24:15.440Z,8.23
2018-09-20T02:26:43.517Z,8.60
2018-09-20T02:29:11.641Z,8.93
2018-09-20T02:31:39.723Z,8.80
2018-09-20T02:34:07.898Z,8.83
2018-09-20T02:36:35.993Z,8.90
2018-09-20T02:39:06.022Z,8.93
2018-09-20T02:41:34.100Z,8.83
2018-09-20T02:44:02.268Z,9.13
2018-09-20T02:46:30.355Z,9.03
2018-09-20T02:48:58.450Z,8.70
2018-09-20T02:51:26.598Z,9.03
2018-09-20T02:53:54.673Z,8.50
2018-09-20T02:56:22.793Z,8.70
2018-09-20T02:58:50.925Z,8.07
2018-09-20T03:01:19.023Z,8.93
2018-09-20T03:03:47.157Z,8.40
2018-09-20T03:06:15.277Z,8.57
2018-09-20T03:08:43.349Z,8.47
2018-09-20T03:11:11.398Z,8.27
2018-09-20T03:13:39.482Z,8.07
2018-09-20T03:16:07.558Z,8.47
2018-09-20T03:18:35.640Z,8.63
2018-09-20T03:21:03.799Z,8.77
2018-09-20T03:23:31.889Z,9.20
2018-09-20T03:26:00.024Z,7.93
2018-09-20T03:28:28.134Z,8.30
2018-09-20T03:30:56.309Z,8.83
2018-09-20T03:33:24.401Z,8.30
2018-09-20T03:35:52.553Z,8.20
2018-09-20T03:38:20.637Z,8.43
2018-09-20T03:40:48.726Z,8.30
2018-09-20T03:43:16.845Z,9.40
2018-09-20T03:45:44.927Z,8.67
2018-09-20T03:48:13.012Z,8.40
2018-09-20T03:50:41.409Z,8.30
2018-09-20T03:53:09.488Z,8.80
2018-09-20T03:55:37.651Z,8.43
2018-09-20T03:58:05.772Z,8.77
2018-09-20T04:00:33.843Z,8.40
2018-09-20T04:03:01.971Z,8.40
2018-09-20T04:05:30.080Z,8.80
2018-09-20T04:07:58.147Z,9.00
2018-09-20T04:10:26.281Z,8.83
2018-09-20T04:12:54.414Z,8.53
2018-09-20T04:15:22.542Z,9.20
2018-09-20T04:17:50.627Z,9.77
2018-09-20T04:20:18.742Z,9.27
2018-09-20T04:22:46.821Z,9.07
2018-09-20T04:25:14.930Z,9.20
2018-09-20T04:27:43.028Z,9.27
2018-09-20T04:30:11.106Z,8.40
2018-09-20T04:32:39.163Z,9.07
2018-09-20T04:35:07.267Z,9.33
2018-09-20T04:37:35.386Z,11.43
2018-09-20T04:40:03.571Z,9.43
2018-09-20T04:42:31.669Z,8.90
2018-09-20T04:44:59.737Z,9.13
2018-09-20T04:47:27.785Z,9.53
2018-09-20T04:49:55.958Z,8.97
2018-09-20T04:52:24.085Z,9.50
2018-09-20T04:54:52.208Z,9.00
2018-09-20T04:57:20.364Z,8.60
2018-09-20T04:59:48.474Z,8.97
2018-09-20T05:02:18.158Z,9.60
2018-09-20T05:04:47.678Z,8.97
2018-09-20T05:07:17.191Z,8.90
2018-09-20T05:09:45.319Z,9.73
2018-09-20T05:12:13.444Z,9.33
2018-09-20T05:14:41.630Z,10.30
2018-09-20T05:17:09.733Z,9.30
2018-09-20T05:19:37.914Z,9.33
2018-09-20T05:22:06.057Z,9.70
2018-09-20T05:24:34.273Z,9.20
2018-09-20T05:27:02.430Z,9.13
2018-09-20T05:29:30.518Z,9.13
2018-09-20T05:31:58.839Z,11.73
2018-09-20T05:34:26.945Z,8.50
2018-09-20T05:36:55.044Z,8.70
2018-09-20T05:39:23.129Z,8.97
2018-09-20T05:41:51.303Z,9.67
2018-09-20T05:44:26.008Z,8.93
2018-09-20T05:46:54.110Z,9.73
2018-09-20T05:49:22.239Z,8.30
2018-09-20T05:51:50.345Z,8.30
2018-09-20T05:54:18.499Z,9.17
2018-09-20T05:56:46.591Z,8.87
2018-09-20T05:59:14.706Z,8.63
2018-09-20T06:01:42.790Z,8.97
2018-09-20T06:04:11.021Z,10.10
2018-09-20T06:06:39.184Z,8.67
2018-09-20T06:09:08.289Z,8.33
2018-09-20T06:11:37.000Z,9.13
2018-09-20T06:14:05.823Z,9.80
2018-09-20T06:16:34.197Z,8.43
2018-09-20T06:19:02.514Z,9.50
2018-09-20T06:21:31.665Z,10.50
2018-09-20T06:23:59.807Z,11.00
2018-09-20T06:26:28.153Z,9.43
2018-09-20T06:28:57.440Z,8.60
2018-09-20T06:31:25.849Z,8.40
2018-09-20T06:33:54.940Z,8.77
2018-09-20T06:36:24.065Z,8.93
2018-09-20T06:41:27.776Z,9.90
2018-09-20T06:43:55.928Z,8.63
2018-09-20T06:46:24.165Z,8.03
2018-09-20T06:48:52.865Z,9.00
2018-09-20T06:51:21.799Z,8.60
2018-09-20T06:53:50.051Z,9.17
2018-09-20T06:56:18.757Z,7.97
2018-09-20T06:58:46.980Z,9.53
2018-09-20T07:01:15.093Z,8.60
2018-09-20T07:03:43.213Z,8.70
2018-09-20T07:06:11.331Z,11.77
2018-09-20T07:08:40.367Z,9.13
2018-09-20T07:11:08.629Z,7.70
2018-09-20T07:13:36.790Z,9.23
2018-09-20T07:16:06.503Z,8.03
2018-09-20T07:18:35.197Z,10.57
2018-09-20T07:21:03.954Z,7.97
2018-09-20T07:23:32.277Z,8.83
2018-09-20T07:26:00.460Z,8.27
2018-09-20T07:28:28.548Z,9.53
2018-09-20T07:30:56.824Z,8.00
2018-09-20T07:33:24.913Z,7.70
2018-09-20T07:35:54.017Z,8.97
2018-09-20T07:38:22.192Z,9.53
2018-09-20T07:40:50.569Z,8.77
2018-09-20T07:43:19.673Z,11.40
2018-09-20T07:45:47.858Z,11.23
2018-09-20T07:48:16.681Z,12.50
2018-09-20T07:50:45.681Z,7.43
2018-09-20T07:53:13.755Z,10.70
2018-09-20T07:55:42.404Z,9.53
2018-09-20T07:58:10.521Z,8.73
2018-09-20T08:00:38.608Z,10.43
2018-09-20T08:03:06.801Z,11.20
2018-09-20T08:05:34.879Z,9.20
2018-09-20T08:08:03.164Z,9.00
2018-09-20T08:10:31.273Z,9.83
2018-09-20T08:12:59.376Z,7.83
2018-09-20T08:15:27.682Z,9.80
2018-09-20T08:17:55.855Z,8.13
2018-09-20T08:20:24.033Z,9.73
2018-09-20T08:22:52.204Z,7.30
2018-09-20T08:25:20.609Z,11.13
2018-09-20T08:27:48.805Z,8.20
2018-09-20T08:30:16.927Z,11.33
2018-09-20T08:32:45.226Z,8.97
2018-09-20T08:35:13.384Z,9.47
2018-09-20T08:37:41.585Z,7.67
2018-09-20T08:40:09.721Z,9.07
2018-09-20T08:42:37.817Z,7.73
2018-09-20T08:45:06.221Z,8.70
2018-09-20T08:47:34.365Z,8.93
2018-09-20T08:50:02.509Z,8.33
2018-09-20T08:52:30.784Z,10.67
2018-09-20T08:54:59.065Z,6.97
2018-09-20T08:57:27.226Z,11.70
2018-09-20T08:59:55.384Z,9.27
2018-09-20T09:02:23.608Z,10.67
2018-09-20T09:04:51.751Z,10.37
2018-09-20T09:07:19.936Z,11.07
2018-09-20T09:09:48.099Z,10.60
2018-09-20T09:12:16.169Z,8.33
2018-09-20T09:14:44.250Z,10.57
2018-09-20T09:17:12.778Z,7.77
2018-09-20T09:19:40.959Z,9.97
2018-09-20T09:22:09.127Z,14.40
2018-09-20T09:24:37.228Z,7.77
2018-09-20T09:27:05.299Z,10.10
2018-09-20T09:29:33.371Z,9.47
2018-09-20T09:32:01.469Z,9.43
2018-09-20T09:34:29.531Z,7.13
2018-09-20T09:36:57.721Z,8.30
2018-09-20T09:39:26.005Z,8.00
2018-09-20T09:41:54.097Z,9.70
2018-09-20T09:44:22.190Z,7.83
2018-09-20T09:46:50.325Z,7.43
2018-09-20T09:49:18.409Z,8.10
2018-09-20T09:51:46.501Z,8.03
2018-09-20T09:54:14.645Z,7.93
2018-09-20T09:56:42.752Z,7.27
2018-09-20T09:59:10.841Z,7.70
2018-09-20T10:01:38.941Z,8.07
2018-09-20T10:04:07.021Z,8.00
2018-09-20T10:06:35.113Z,9.00
2018-09-20T10:09:03.281Z,9.63
2018-09-20T10:11:31.424Z,11.83
2018-09-20T10:13:59.498Z,7.33
2018-09-20T10:16:27.630Z,7.90
2018-09-20T10:18:55.750Z,8.23
2018-09-20T10:21:23.828Z,7.67
2018-09-20T10:23:52.145Z,10.73
2018-09-20T10:26:20.242Z,9.37
2018-09-20T10:28:48.363Z,8.60
2018-09-20T10:31:16.496Z,8.43
2018-09-20T10:33:44.579Z,7.17
2018-09-20T10:36:12.673Z,6.47
2018-09-20T10:38:40.781Z,7.40
2018-09-20T10:41:09.263Z,6.87
2018-09-20T10:43:37.381Z,11.00
2018-09-20T10:46:05.647Z,5.90
2018-09-20T10:48:33.986Z,6.33
2018-09-20T10:51:02.076Z,6.57
2018-09-20T10:53:30.317Z,6.10
2018-09-20T10:55:58.404Z,7.30
2018-09-20T10:58:26.503Z,7.53
2018-09-20T11:00:54.605Z,7.37
2018-09-20T11:03:22.709Z,7.67
2018-09-20T11:05:50.826Z,6.67
2018-09-20T11:08:18.918Z,8.90
2018-09-20T11:10:47.090Z,6.90
2018-09-20T11:13:15.825Z,6.40
2018-09-20T11:18:18.444Z,6.33
2018-09-20T11:20:46.715Z,6.43
2018-09-20T11:23:14.838Z,7.63
2018-09-20T11:25:42.978Z,5.80
2018-09-20T11:28:11.221Z,8.17
2018-09-20T11:30:39.329Z,5.77
2018-09-20T11:33:07.409Z,6.90
2018-09-20T11:35:35.545Z,8.23
2018-09-20T11:38:03.662Z,5.77
2018-09-20T11:40:31.777Z,5.97
2018-09-20T11:42:59.908Z,7.70
2018-09-20T11:45:27.994Z,6.27
2018-09-20T11:47:56.099Z,8.57
2018-09-20T11:50:24.225Z,6.40
2018-09-20T11:52:52.296Z,6.40
2018-09-20T11:55:20.421Z,6.50
2018-09-20T11:57:48.577Z,6.83
2018-09-20T12:00:20.080Z,6.37
2018-09-20T12:02:48.457Z,5.93
2018-09-20T12:05:16.526Z,6.30
2018-09-20T12:07:44.694Z,5.87
2018-09-20T12:10:12.776Z,9.95
2018-09-20T12:12:40.877Z,6.77
2018-09-20T12:15:09.003Z,5.87
2018-09-20T12:17:37.049Z,6.00
2018-09-20T12:20:05.225Z,7.57
2018-09-20T12:22:33.773Z,7.07
2018-09-20T12:25:02.113Z,7.03
2018-09-20T12:27:59.356Z,6.53
2018-09-20T12:30:27.551Z,6.87
2018-09-20T12:32:55.756Z,7.60
2018-09-20T12:35:23.903Z,6.07
2018-09-20T12:37:51.954Z,5.70
2018-09-20T12:40:20.040Z,5.97
2018-09-20T12:42:48.325Z,6.60
2018-09-20T12:45:16.353Z,7.83
2018-09-20T12:47:44.438Z,6.50
2018-09-20T12:50:12.574Z,6.03
2018-09-20T12:52:40.662Z,7.07
2018-09-20T12:55:08.884Z,5.90
2018-09-20T12:57:36.997Z,6.13
2018-09-20T13:00:05.513Z,5.87
2018-09-20T13:02:33.670Z,5.73
2018-09-20T13:05:01.921Z,8.03
2018-09-20T13:07:30.102Z,5.43
2018-09-20T13:09:59.031Z,5.53
2018-09-20T13:12:27.121Z,6.63
2018-09-20T13:14:55.218Z,7.97
2018-09-20T13:17:23.497Z,6.93
2018-09-20T13:19:51.741Z,5.37
2018-09-20T13:22:19.821Z,6.13
2018-09-20T13:24:47.894Z,5.47
2018-09-20T13:27:16.038Z,5.60
2018-09-20T13:29:44.186Z,5.53
2018-09-20T13:32:12.394Z,6.33
2018-09-20T13:34:40.570Z,5.43
2018-09-20T13:37:08.711Z,6.07
2018-09-20T13:39:36.826Z,5.40
2018-09-20T13:42:04.945Z,6.30
2018-09-20T13:44:33.150Z,6.77
2018-09-20T13:47:01.329Z,5.93
2018-09-20T13:49:29.421Z,5.17
2018-09-20T13:51:57.605Z,5.67
2018-09-20T13:54:25.989Z,5.63
2018-09-20T13:56:54.072Z,5.50
2018-09-20T13:59:22.306Z,5.97
2018-09-20T14:01:50.408Z,7.60
2018-09-20T14:04:18.546Z,5.83
2018-09-20T14:06:46.758Z,5.47
2018-09-20T14:09:14.858Z,7.20
2018-09-20T14:11:42.957Z,5.53
2018-09-20T14:14:11.037Z,5.27
2018-09-20T14:16:39.109Z,7.93
2018-09-20T14:19:07.285Z,7.43
2018-09-20T14:21:35.593Z,5.27
2018-09-20T14:24:03.667Z,5.57
2018-09-20T14:26:31.734Z,6.30
2018-09-20T14:28:59.836Z,6.40
2018-09-20T14:31:27.971Z,6.47
2018-09-20T14:33:56.137Z,6.90
2018-09-20T14:36:24.211Z,8.30
2018-09-20T14:38:52.284Z,5.80
2018-09-20T14:41:20.523Z,8.47
2018-09-20T14:43:48.846Z,5.97
2018-09-20T14:46:16.948Z,5.83
2018-09-20T14:48:45.026Z,6.33
2018-09-20T14:51:13.146Z,5.80
2018-09-20T14:53:41.238Z,6.13
2018-09-20T14:56:09.426Z,5.97
2018-09-20T14:58:37.519Z,5.93
2018-09-20T15:01:06.882Z,8.30
2018-09-20T15:03:35.262Z,6.20
2018-09-20T15:06:03.544Z,5.83
2018-09-20T15:08:31.700Z,6.57
2018-09-20T15:11:00.122Z,5.63
2018-09-20T15:13:28.265Z,5.53
2018-09-20T15:15:56.317Z,6.80
2018-09-20T15:18:24.419Z,6.27
2018-09-20T15:20:52.519Z,6.57
2018-09-20T15:23:20.615Z,6.20
2018-09-20T15:25:48.705Z,7.43
2018-09-20T15:28:16.834Z,6.73
2018-09-20T15:30:45.066Z,5.77
2018-09-20T15:33:13.141Z,5.97
2018-09-20T15:35:41.245Z,8.90
2018-09-20T15:38:09.357Z,6.77
2018-09-20T15:40:37.450Z,5.50
2018-09-20T15:43:05.559Z,6.87
2018-09-20T15:45:33.627Z,5.50
2018-09-20T15:48:01.696Z,6.40
2018-09-20T15:50:29.764Z,7.30
2018-09-20T15:52:57.830Z,8.47
2018-09-20T15:55:25.946Z,7.43
2018-09-20T15:57:54.051Z,7.40
2018-09-20T16:00:22.125Z,8.37
2018-09-20T16:02:50.255Z,5.53
2018-09-20T16:05:18.335Z,5.77
2018-09-20T16:07:46.437Z,6.27
2018-09-20T16:10:14.510Z,6.50
2018-09-20T16:12:42.715Z,6.07
2018-09-20T16:15:10.770Z,9.67
2018-09-20T16:17:38.854Z,7.90
2018-09-20T16:20:07.487Z,6.07
2018-09-20T16:22:35.619Z,7.10
2018-09-20T16:25:03.703Z,6.07
2018-09-20T16:27:31.785Z,7.70
2018-09-20T16:32:21.861Z,7.87
2018-09-20T16:34:58.760Z,6.47
2018-09-20T16:38:40.603Z,5.87
2018-09-20T16:41:10.374Z,7.23
2018-09-20T16:43:38.449Z,9.77
2018-09-20T16:46:06.540Z,11.00
2018-09-20T16:48:34.625Z,7.50
2018-09-20T16:51:02.705Z,9.03
2018-09-20T16:53:30.824Z,6.90
2018-09-20T16:55:58.890Z,7.43
2018-09-20T16:58:26.973Z,7.77
2018-09-20T17:00:55.161Z,6.37
2018-09-20T17:03:23.229Z,7.87
2018-09-20T17:05:51.305Z,6.83
2018-09-20T17:08:19.412Z,15.83
2018-09-20T17:10:47.541Z,10.63
2018-09-20T17:13:16.355Z,11.17
2018-09-20T17:15:44.507Z,11.20
2018-09-20T17:18:12.585Z,9.10
2018-09-20T17:20:40.665Z,11.40
2018-09-20T17:23:08.731Z,10.37
2018-09-20T17:25:36.853Z,9.07
2018-09-20T17:28:05.005Z,8.80
2018-09-20T17:30:33.118Z,12.07
2018-09-20T17:33:01.218Z,8.87
2018-09-20T17:35:29.679Z,8.33
2018-09-20T17:37:58.977Z,9.67
2018-09-20T17:40:28.023Z,10.33
2018-09-20T17:42:58.929Z,10.00
2018-09-20T17:45:27.304Z,11.50
2018-09-20T17:47:55.408Z,10.80
2018-09-20T17:50:23.500Z,13.23
2018-09-20T17:52:51.970Z,11.60
2018-09-20T17:55:20.340Z,12.33
2018-09-20T17:57:48.765Z,12.20
2018-09-20T18:00:16.879Z,13.70
2018-09-20T18:02:44.981Z,10.93
2018-09-20T18:05:13.113Z,12.40
2018-09-20T18:07:41.277Z,13.20
2018-09-20T18:10:09.372Z,11.13
2018-09-20T18:12:37.460Z,21.57
2018-09-20T18:15:05.605Z,17.17
2018-09-20T18:17:33.702Z,12.43
2018-09-20T18:20:01.808Z,11.63
2018-09-20T18:22:30.320Z,13.93
2018-09-20T18:24:58.477Z,9.97
2018-09-20T18:27:27.172Z,14.13
2018-09-20T18:29:55.585Z,13.97
2018-09-20T18:32:23.972Z,9.77
2018-09-20T18:34:52.701Z,14.77
2018-09-20T18:37:21.996Z,9.80
2018-09-20T18:39:50.144Z,9.27
2018-09-20T18:42:18.373Z,10.20
2018-09-20T18:44:46.854Z,8.77
2018-09-20T18:47:15.526Z,9.97
2018-09-20T18:49:43.677Z,10.93
2018-09-20T18:52:11.794Z,8.93
2018-09-20T18:54:40.191Z,8.67
2018-09-20T18:57:08.347Z,8.83
2018-09-20T18:59:36.503Z,9.17
2018-09-20T19:02:04.744Z,9.40
2018-09-20T19:04:33.095Z,9.03
2018-09-20T19:07:01.252Z,10.30
2018-09-20T19:09:29.510Z,9.63
2018-09-20T19:11:57.617Z,9.03
2018-09-20T19:14:25.731Z,18.50
2018-09-20T19:16:53.930Z,22.20
2018-09-20T19:19:22.165Z,18.20
2018-09-20T19:21:50.336Z,11.60
2018-09-20T19:24:18.526Z,9.27
2018-09-20T19:26:46.738Z,8.70
2018-09-20T19:29:14.915Z,9.30
2018-09-20T19:31:44.893Z,9.10
2018-09-20T19:34:13.097Z,9.10
2018-09-20T19:36:41.490Z,10.10
2018-09-20T19:39:10.890Z,8.87
2018-09-20T19:41:39.025Z,9.00
2018-09-20T19:44:07.115Z,8.87
2018-09-20T19:46:35.242Z,9.63
2018-09-20T19:49:03.322Z,10.00
2018-09-20T19:51:32.464Z,9.80
2018-09-20T19:54:00.763Z,9.80
2018-09-20T19:56:29.024Z,9.30
2018-09-20T19:58:57.465Z,9.10
2018-09-20T20:01:25.589Z,8.63
2018-09-20T20:04:06.702Z,9.20
2018-09-20T20:06:34.849Z,9.30
2018-09-20T20:09:03.290Z,12.93
2018-09-20T20:11:31.417Z,22.17
2018-09-20T20:13:59.484Z,13.33
2018-09-20T20:16:27.631Z,10.80
2018-09-20T20:18:55.750Z,9.97
2018-09-20T20:21:23.852Z,11.17
2018-09-20T20:23:51.920Z,10.93
2018-09-20T20:26:20.045Z,10.57
2018-09-20T20:28:48.142Z,10.87
2018-09-20T20:31:16.253Z,10.80
2018-09-20T20:33:44.391Z,10.23
2018-09-20T20:36:12.493Z,10.90
2018-09-20T20:38:40.578Z,10.17
2018-09-20T20:41:08.649Z,9.70
2018-09-20T20:43:36.719Z,10.77
2018-09-20T20:46:04.804Z,9.07
2018-09-20T20:48:32.958Z,10.67
2018-09-20T20:51:01.048Z,9.70
2018-09-20T20:53:29.119Z,10.47
2018-09-20T20:55:57.198Z,9.90
2018-09-20T20:58:25.359Z,9.83
2018-09-20T21:00:53.414Z,9.10
2018-09-20T21:03:21.507Z,10.30
2018-09-20T21:05:49.591Z,10.27
2018-09-20T21:08:17.669Z,10.67
2018-09-20T21:10:45.742Z,9.17
2018-09-20T21:13:13.833Z,10.23
2018-09-20T21:15:41.913Z,9.87
2018-09-20T21:18:09.977Z,10.30
2018-09-20T21:20:38.069Z,9.30
2018-09-20T21:23:06.150Z,9.13
2018-09-20T21:25:34.233Z,10.10
2018-09-20T21:28:02.306Z,10.37
2018-09-20T21:30:30.373Z,9.80
2018-09-20T21:32:58.469Z,9.60
2018-09-20T21:35:26.545Z,10.07
2018-09-20T21:37:54.618Z,10.73
2018-09-20T21:40:22.705Z,9.73
2018-09-20T21:42:50.835Z,11.90
2018-09-20T21:45:18.915Z,12.63
2018-09-20T21:47:47.029Z,9.53
2018-09-20T21:50:15.108Z,10.13
2018-09-20T21:52:43.205Z,9.13
2018-09-20T21:55:11.279Z,9.73
2018-09-20T21:57:39.363Z,9.13
2018-09-20T22:00:07.494Z,9.10
2018-09-20T22:02:41.151Z,9.13
2018-09-20T22:05:09.212Z,8.97
2018-09-20T22:07:37.310Z,9.00
2018-09-20T22:10:05.393Z,9.37
2018-09-20T22:12:33.454Z,9.17
2018-09-20T22:15:01.538Z,10.13
2018-09-20T22:17:29.609Z,9.17
2018-09-20T22:19:57.661Z,8.83
2018-09-20T22:22:25.742Z,9.13
2018-09-20T22:24:53.848Z,10.73
2018-09-20T22:27:21.936Z,9.30
2018-09-20T22:29:50.005Z,8.67
2018-09-20T22:32:18.100Z,9.73
2018-09-20T22:34:46.178Z,9.30
2018-09-20T22:37:14.263Z,8.73
2018-09-20T22:39:42.368Z,10.87
2018-09-20T22:42:10.427Z,9.07
2018-09-20T22:44:38.495Z,8.80
2018-09-20T22:47:06.549Z,9.10
2018-09-20T22:49:34.625Z,8.73
2018-09-20T22:52:02.697Z,11.00
2018-09-20T22:54:30.745Z,9.53
2018-09-20T22:56:58.816Z,9.63
2018-09-20T22:59:26.884Z,9.00
2018-09-20T23:01:54.977Z,9.07
2018-09-20T23:04:23.037Z,9.13
2018-09-20T23:06:51.125Z,8.97
2018-09-20T23:09:19.151Z,9.93
2018-09-20T23:11:47.235Z,8.57
2018-09-20T23:14:15.283Z,9.17
2018-09-20T23:16:43.344Z,8.80
2018-09-20T23:19:11.412Z,9.33
2018-09-20T23:21:39.489Z,8.70
2018-09-20T23:24:07.553Z,11.17
2018-09-20T23:26:35.623Z,9.43
2018-09-20T23:29:03.696Z,9.30
2018-09-20T23:31:31.772Z,8.90
2018-09-20T23:33:59.840Z,9.07
2018-09-20T23:36:27.916Z,8.93
2018-09-20T23:38:55.980Z,9.27
2018-09-20T23:41:24.056Z,9.83
2018-09-20T23:43:52.124Z,9.53
2018-09-20T23:46:20.204Z,9.77
2018-09-20T23:48:48.273Z,9.00
2018-09-20T23:51:16.335Z,9.33
2018-09-20T23:53:44.375Z,10.53
2018-09-20T23:56:12.417Z,8.97
2018-09-20T23:58:40.463Z,8.77
